createdAt,value
2018-08-21T00:02:34.144Z,15.72
2018-08-21T00:05:02.602Z,15.59
2018-08-21T00:07:31.192Z,15.58
2018-08-21T00:09:59.444Z,15.60
2018-08-21T00:12:27.744Z,15.52
2018-08-21T00:15:07.277Z,15.56
2018-08-21T00:17:35.547Z,15.59
2018-08-21T00:20:07.665Z,15.42
2018-08-21T00:22:35.961Z,15.40
2018-08-21T00:25:04.265Z,15.45
2018-08-21T00:27:32.533Z,15.45
2018-08-21T00:30:00.825Z,15.37
2018-08-21T00:32:29.109Z,15.35
2018-08-21T00:34:57.349Z,15.33
2018-08-21T00:37:25.629Z,15.28
2018-08-21T00:39:53.897Z,15.26
2018-08-21T00:42:22.237Z,15.31
2018-08-21T00:44:54.729Z,15.29
2018-08-21T00:47:23.051Z,15.25
2018-08-21T00:49:51.320Z,15.23
2018-08-21T00:52:19.709Z,15.17
2018-08-21T00:54:47.988Z,15.16
2018-08-21T00:57:16.242Z,15.12
2018-08-21T00:59:44.525Z,15.05
2018-08-21T01:02:12.765Z,15.07
2018-08-21T01:04:41.056Z,15.10
2018-08-21T01:07:09.317Z,15.09
2018-08-21T01:09:37.593Z,15.10
2018-08-21T01:12:06.212Z,15.14
2018-08-21T01:14:35.565Z,15.11
2018-08-21T01:17:03.846Z,15.25
2018-08-21T01:19:32.117Z,15.19
2018-08-21T01:22:00.389Z,15.16
2018-08-21T01:24:28.653Z,15.07
2018-08-21T01:26:56.897Z,15.08
2018-08-21T01:29:25.160Z,15.11
2018-08-21T01:31:53.496Z,15.07
2018-08-21T01:34:21.721Z,15.13
2018-08-21T01:36:50.054Z,15.06
2018-08-21T01:39:18.298Z,15.06
2018-08-21T01:41:47.673Z,15.16
2018-08-21T01:44:15.925Z,15.05
2018-08-21T01:46:48.937Z,15.11
2018-08-21T01:49:17.181Z,15.16
2018-08-21T01:51:45.441Z,15.16
2018-08-21T01:54:16.429Z,15.10
2018-08-21T01:56:44.921Z,15.06
2018-08-21T01:59:13.806Z,15.06
2018-08-21T02:01:42.096Z,15.06
2018-08-21T02:04:10.350Z,15.16
2018-08-21T02:06:38.625Z,15.09
2018-08-21T02:09:11.249Z,15.06
2018-08-21T02:11:40.854Z,15.08
2018-08-21T02:14:09.925Z,15.06
2018-08-21T02:16:38.948Z,15.05
2018-08-21T02:19:07.501Z,15.01
2018-08-21T02:21:35.989Z,14.98
2018-08-21T02:24:04.267Z,14.93
2018-08-21T02:26:32.549Z,14.82
2018-08-21T02:29:00.808Z,14.76
2018-08-21T02:31:29.062Z,14.73
2018-08-21T02:33:57.613Z,14.70
2018-08-21T02:36:25.971Z,14.63
2018-08-21T02:38:54.281Z,14.70
2018-08-21T02:41:22.549Z,14.61
2018-08-21T02:43:50.826Z,14.62
2018-08-21T02:46:26.748Z,14.59
2018-08-21T02:48:57.425Z,14.54
2018-08-21T02:51:35.314Z,14.54
2018-08-21T02:54:04.021Z,14.57
2018-08-21T02:56:32.288Z,14.64
2018-08-21T02:59:01.192Z,14.60
2018-08-21T03:01:37.996Z,14.58
2018-08-21T03:04:13.713Z,14.66
2018-08-21T03:06:42.084Z,14.64
2018-08-21T03:09:13.854Z,14.48
2018-08-21T03:11:42.836Z,14.42
2018-08-21T03:14:11.157Z,14.37
2018-08-21T03:16:39.451Z,14.39
2018-08-21T03:19:08.002Z,14.33
2018-08-21T03:21:36.309Z,14.33
2018-08-21T03:24:04.827Z,14.39
2018-08-21T03:26:33.081Z,14.42
2018-08-21T03:29:01.377Z,14.39
2018-08-21T03:31:29.637Z,14.36
2018-08-21T03:33:57.920Z,14.34
2018-08-21T03:36:28.153Z,14.32
2018-08-21T03:38:56.441Z,14.37
2018-08-21T03:41:24.745Z,14.38
2018-08-21T03:43:53.097Z,14.29
2018-08-21T03:46:21.393Z,14.37
2018-08-21T03:48:49.751Z,14.39
2018-08-21T03:51:19.108Z,14.37
2018-08-21T03:53:53.654Z,14.37
2018-08-21T03:56:22.369Z,14.47
2018-08-21T03:58:50.633Z,14.60
2018-08-21T04:01:18.927Z,14.74
2018-08-21T04:03:52.633Z,14.83
2018-08-21T04:06:29.358Z,14.94
2018-08-21T04:08:57.729Z,15.02
2018-08-21T04:11:26.369Z,15.07
2018-08-21T04:13:58.020Z,15.15
2018-08-21T04:16:26.350Z,15.17
2018-08-21T04:18:55.637Z,15.30
2018-08-21T04:21:28.153Z,15.36
2018-08-21T04:23:56.793Z,15.47
2018-08-21T04:26:26.409Z,15.48
2018-08-21T04:28:55.708Z,15.49
2018-08-21T04:31:24.003Z,15.60
2018-08-21T04:33:55.919Z,15.69
2018-08-21T04:36:24.178Z,15.75
2018-08-21T04:38:53.532Z,15.62
2018-08-21T04:41:21.836Z,15.54
2018-08-21T04:43:50.129Z,15.67
2018-08-21T04:46:19.409Z,15.73
2018-08-21T04:48:48.209Z,15.81
2018-08-21T04:51:17.993Z,15.92
2018-08-21T04:53:46.282Z,16.01
2018-08-21T04:56:14.537Z,16.05
2018-08-21T04:58:44.548Z,16.19
2018-08-21T05:01:12.846Z,16.34
2018-08-21T05:03:41.173Z,16.53
2018-08-21T05:06:09.486Z,16.66
2018-08-21T05:08:37.766Z,16.94
2018-08-21T05:11:10.648Z,17.14
2018-08-21T05:13:38.977Z,17.24
2018-08-21T05:16:07.281Z,17.03
2018-08-21T05:18:35.697Z,16.89
2018-08-21T05:21:04.241Z,16.95
2018-08-21T05:23:32.787Z,17.16
2018-08-21T05:26:02.321Z,17.21
2018-08-21T05:28:32.295Z,17.26
2018-08-21T05:31:06.525Z,17.25
2018-08-21T05:33:34.811Z,17.43
2018-08-21T05:36:05.061Z,17.50
2018-08-21T05:38:34.744Z,17.47
2018-08-21T05:41:05.409Z,17.45
2018-08-21T05:43:35.151Z,17.52
2018-08-21T05:46:04.420Z,17.77
2018-08-21T05:48:32.801Z,17.96
2018-08-21T05:51:01.313Z,17.87
2018-08-21T05:53:30.629Z,17.56
2018-08-21T05:55:59.579Z,17.62
2018-08-21T05:58:28.232Z,17.65
2018-08-21T06:00:56.645Z,17.43
2018-08-21T06:03:24.937Z,17.54
2018-08-21T06:05:53.229Z,17.84
2018-08-21T06:08:22.593Z,17.47
2018-08-21T06:10:50.852Z,17.50
2018-08-21T06:13:19.169Z,17.42
2018-08-21T06:15:48.017Z,17.51
2018-08-21T06:18:22.346Z,17.84
2018-08-21T06:20:55.549Z,17.71
2018-08-21T06:23:25.532Z,17.89
2018-08-21T06:25:53.757Z,18.27
2018-08-21T06:28:25.210Z,18.73
2018-08-21T06:30:53.493Z,18.80
2018-08-21T06:33:21.805Z,19.00
2018-08-21T06:35:50.325Z,18.90
2018-08-21T06:38:18.845Z,18.68
2018-08-21T06:40:47.390Z,18.79
2018-08-21T06:43:16.410Z,18.62
2018-08-21T06:45:44.710Z,18.64
2018-08-21T06:48:14.922Z,18.73
2018-08-21T06:50:44.797Z,18.98
2018-08-21T06:53:13.613Z,19.07
2018-08-21T06:55:42.070Z,19.10
2018-08-21T06:58:11.596Z,19.09
2018-08-21T07:00:41.033Z,19.23
2018-08-21T07:03:10.494Z,19.06
2018-08-21T07:05:39.877Z,18.88
2018-08-21T07:08:09.779Z,18.96
2018-08-21T07:10:38.120Z,19.12
2018-08-21T07:13:06.509Z,19.41
2018-08-21T07:15:34.842Z,19.13
2018-08-21T07:18:04.250Z,18.96
2018-08-21T07:20:34.281Z,19.59
2018-08-21T07:23:02.597Z,19.35
2018-08-21T07:25:31.057Z,19.40
2018-08-21T07:27:59.337Z,19.63
2018-08-21T07:30:35.251Z,20.24
2018-08-21T07:33:03.529Z,20.19
2018-08-21T07:35:31.879Z,20.00
2018-08-21T07:38:00.125Z,19.92
2018-08-21T07:40:28.527Z,20.00
2018-08-21T07:42:56.796Z,20.28
2018-08-21T07:45:25.395Z,20.15
2018-08-21T07:47:53.690Z,20.42
2018-08-21T07:50:22.007Z,20.27
2018-08-21T07:52:55.649Z,19.96
2018-08-21T07:55:24.172Z,20.00
2018-08-21T07:57:53.657Z,20.04
2018-08-21T08:00:22.975Z,20.20
2018-08-21T08:02:54.713Z,20.14
2018-08-21T08:05:25.361Z,20.48
2018-08-21T08:07:54.467Z,20.58
2018-08-21T08:10:24.586Z,20.93
2018-08-21T08:12:54.906Z,21.06
2018-08-21T08:15:23.237Z,20.99
2018-08-21T08:17:55.552Z,21.41
2018-08-21T08:20:25.033Z,21.02
2018-08-21T08:22:53.647Z,20.40
2018-08-21T08:25:21.929Z,20.43
2018-08-21T08:27:50.217Z,20.12
2018-08-21T08:30:18.979Z,20.38
2018-08-21T08:32:47.972Z,20.38
2018-08-21T08:35:17.245Z,21.27
2018-08-21T08:37:46.878Z,21.50
2018-08-21T08:40:20.433Z,21.69
2018-08-21T08:42:50.916Z,21.77
2018-08-21T08:45:23.535Z,21.46
2018-08-21T08:47:51.922Z,20.81
2018-08-21T08:50:20.177Z,20.82
2018-08-21T08:52:49.673Z,20.78
2018-08-21T08:55:17.954Z,20.52
2018-08-21T08:57:48.389Z,20.69
2018-08-21T09:00:18.295Z,20.70
2018-08-21T09:02:49.665Z,20.42
2018-08-21T09:05:18.279Z,21.06
2018-08-21T09:07:46.602Z,21.48
2018-08-21T09:10:14.878Z,21.59
2018-08-21T09:12:43.188Z,21.36
2018-08-21T09:15:11.593Z,21.34
2018-08-21T09:17:39.999Z,21.90
2018-08-21T09:20:10.409Z,21.87
2018-08-21T09:22:41.252Z,21.89
2018-08-21T09:25:09.557Z,21.48
2018-08-21T09:27:41.211Z,21.05
2018-08-21T09:30:12.750Z,21.36
2018-08-21T09:32:41.019Z,21.48
2018-08-21T09:35:09.318Z,21.19
2018-08-21T09:37:37.581Z,20.93
2018-08-21T09:40:05.923Z,21.13
2018-08-21T09:42:35.285Z,21.18
2018-08-21T09:45:03.614Z,21.15
2018-08-21T09:47:31.919Z,21.68
2018-08-21T09:50:02.309Z,22.14
2018-08-21T09:52:31.482Z,22.27
2018-08-21T09:55:04.918Z,22.81
2018-08-21T09:58:57.595Z,22.84
2018-08-21T10:01:31.057Z,22.50
2018-08-21T10:04:04.701Z,22.68
2018-08-21T10:06:33.068Z,22.50
2018-08-21T10:09:01.295Z,21.87
2018-08-21T10:11:30.034Z,22.37
2018-08-21T10:14:00.399Z,22.41
2018-08-21T10:16:28.711Z,22.37
2018-08-21T10:18:57.281Z,22.25
2018-08-21T10:21:27.716Z,22.73
2018-08-21T10:23:59.188Z,22.54
2018-08-21T10:26:37.617Z,22.76
2018-08-21T10:29:05.945Z,23.19
2018-08-21T10:31:36.565Z,23.05
2018-08-21T10:34:05.859Z,22.93
2018-08-21T10:36:34.545Z,23.34
2018-08-21T10:39:02.915Z,23.18
2018-08-21T10:41:31.174Z,22.84
2018-08-21T10:44:01.375Z,22.90
2018-08-21T10:46:29.664Z,22.27
2018-08-21T10:48:58.016Z,22.19
2018-08-21T10:51:26.274Z,22.22
2018-08-21T10:53:54.556Z,22.51
2018-08-21T10:56:22.962Z,22.78
2018-08-21T10:58:51.356Z,22.96
2018-08-21T11:01:19.689Z,22.59
2018-08-21T11:03:50.262Z,22.76
2018-08-21T11:06:18.550Z,22.96
2018-08-21T11:08:47.490Z,23.20
2018-08-21T11:11:15.773Z,23.33
2018-08-21T11:14:00.758Z,23.73
2018-08-21T11:16:30.405Z,23.30
2018-08-21T11:18:59.404Z,22.89
2018-08-21T11:21:28.024Z,22.80
2018-08-21T11:23:56.220Z,22.82
2018-08-21T11:26:24.534Z,23.36
2018-08-21T11:28:53.435Z,23.59
2018-08-21T11:31:21.796Z,23.87
2018-08-21T11:33:50.277Z,24.12
2018-08-21T11:36:19.214Z,24.18
2018-08-21T11:38:47.506Z,24.15
2018-08-21T11:41:15.831Z,24.60
2018-08-21T11:43:44.165Z,24.30
2018-08-21T11:46:12.474Z,23.99
2018-08-21T11:48:40.758Z,23.87
2018-08-21T11:51:09.921Z,24.06
2018-08-21T11:53:38.202Z,23.86
2018-08-21T11:56:06.501Z,23.75
2018-08-21T11:58:34.766Z,24.34
2018-08-21T12:01:03.090Z,24.33
2018-08-21T12:03:31.488Z,24.27
2018-08-21T12:05:59.713Z,23.98
2018-08-21T12:08:28.057Z,23.38
2018-08-21T12:10:56.360Z,23.55
2018-08-21T12:13:24.933Z,23.43
2018-08-21T12:15:53.226Z,23.50
2018-08-21T12:18:21.517Z,23.59
2018-08-21T12:20:49.778Z,23.75
2018-08-21T12:23:18.073Z,23.61
2018-08-21T12:25:46.329Z,23.44
2018-08-21T12:28:14.701Z,23.52
2018-08-21T12:30:42.975Z,23.57
2018-08-21T12:33:11.291Z,23.65
2018-08-21T12:35:39.581Z,23.70
2018-08-21T12:38:07.901Z,23.77
2018-08-21T12:40:36.565Z,24.22
2018-08-21T12:43:04.869Z,24.38
2018-08-21T12:45:33.157Z,24.33
2018-08-21T12:48:01.909Z,24.45
2018-08-21T12:50:30.373Z,24.02
2018-08-21T12:52:58.685Z,24.09
2018-08-21T12:55:26.993Z,24.44
2018-08-21T12:57:55.289Z,24.09
2018-08-21T13:00:23.542Z,24.66
2018-08-21T13:02:51.913Z,24.81
2018-08-21T13:05:20.181Z,25.46
2018-08-21T13:07:48.469Z,25.73
2018-08-21T13:10:16.777Z,25.75
2018-08-21T13:12:45.112Z,25.31
2018-08-21T13:15:13.397Z,25.65
2018-08-21T13:17:41.677Z,25.74
2018-08-21T13:20:09.965Z,25.69
2018-08-21T13:22:38.257Z,25.51
2018-08-21T13:25:06.590Z,25.09
2018-08-21T13:27:34.872Z,25.99
2018-08-21T13:30:03.270Z,26.13
2018-08-21T13:32:31.583Z,26.93
2018-08-21T13:34:59.897Z,27.15
2018-08-21T13:37:28.181Z,27.57
2018-08-21T13:39:56.665Z,27.99
2018-08-21T13:42:25.409Z,28.31
2018-08-21T13:44:53.921Z,28.15
2018-08-21T13:47:22.185Z,28.06
2018-08-21T13:49:50.562Z,27.89
2018-08-21T13:52:18.929Z,27.31
2018-08-21T13:54:47.237Z,27.94
2018-08-21T13:57:15.517Z,27.32
2018-08-21T13:59:43.872Z,25.06
2018-08-21T14:02:12.178Z,25.40
2018-08-21T14:04:40.481Z,25.76
2018-08-21T14:07:08.786Z,26.49
2018-08-21T14:09:37.196Z,27.23
2018-08-21T14:12:05.485Z,27.53
2018-08-21T14:14:33.773Z,27.77
2018-08-21T14:17:02.134Z,27.75
2018-08-21T14:19:30.404Z,28.49
2018-08-21T14:21:58.713Z,29.01
2018-08-21T14:24:27.013Z,29.27
2018-08-21T14:26:55.299Z,29.76
2018-08-21T14:29:23.601Z,29.00
2018-08-21T14:31:51.893Z,28.30
2018-08-21T14:34:20.186Z,29.01
2018-08-21T14:36:48.540Z,28.45
2018-08-21T14:39:16.885Z,29.32
2018-08-21T14:41:45.181Z,31.71
2018-08-21T14:44:13.445Z,34.78
2018-08-21T14:46:41.765Z,35.55
2018-08-21T14:49:10.041Z,33.84
2018-08-21T14:51:38.398Z,30.95
2018-08-21T14:54:06.654Z,30.00
2018-08-21T14:56:34.949Z,29.09
2018-08-21T14:59:03.260Z,27.61
2018-08-21T15:01:31.654Z,26.77
2018-08-21T15:03:59.973Z,26.63
2018-08-21T15:06:28.505Z,26.64
2018-08-21T15:08:56.842Z,29.36
2018-08-21T15:11:25.185Z,34.24
2018-08-21T15:13:53.818Z,37.23
2018-08-21T15:16:22.125Z,37.36
2018-08-21T15:18:50.575Z,35.73
2018-08-21T15:21:18.928Z,37.20
2018-08-21T15:23:47.241Z,38.19
2018-08-21T15:26:15.521Z,40.53
2018-08-21T15:28:43.863Z,41.32
2018-08-21T15:31:12.177Z,41.66
2018-08-21T15:33:40.550Z,41.45
2018-08-21T15:36:09.389Z,41.54
2018-08-21T15:38:37.689Z,42.97
2018-08-21T15:41:06.034Z,43.78
2018-08-21T15:43:34.510Z,42.96
2018-08-21T15:46:02.822Z,43.56
2018-08-21T15:48:31.135Z,41.98
2018-08-21T15:50:59.432Z,38.30
2018-08-21T15:53:28.193Z,35.37
2018-08-21T15:55:56.753Z,33.03
2018-08-21T15:58:25.356Z,31.01
2018-08-21T16:00:53.589Z,29.48
2018-08-21T16:03:21.905Z,29.07
2018-08-21T16:05:50.170Z,29.26
2018-08-21T16:08:18.548Z,33.42
2018-08-21T16:10:46.778Z,36.57
2018-08-21T16:13:15.048Z,38.41
2018-08-21T16:15:43.336Z,38.50
2018-08-21T16:18:11.709Z,37.52
2018-08-21T16:20:40.009Z,39.00
2018-08-21T16:23:08.287Z,39.40
2018-08-21T16:25:36.581Z,37.96
2018-08-21T16:28:04.869Z,38.17
2018-08-21T16:30:33.172Z,39.98
2018-08-21T16:33:01.466Z,39.42
2018-08-21T16:35:29.757Z,39.94
2018-08-21T16:37:58.067Z,38.16
2018-08-21T16:40:27.636Z,37.55
2018-08-21T16:42:55.723Z,38.94
2018-08-21T16:45:24.025Z,38.67
2018-08-21T16:47:52.301Z,37.99
2018-08-21T16:50:20.667Z,37.67
2018-08-21T16:52:48.954Z,34.96
2018-08-21T16:55:17.272Z,31.72
2018-08-21T16:57:45.569Z,29.67
2018-08-21T17:00:14.953Z,28.31
2018-08-21T17:02:43.237Z,26.65
2018-08-21T17:05:11.521Z,26.18
2018-08-21T17:07:39.773Z,25.07
2018-08-21T17:10:09.306Z,24.93
2018-08-21T17:12:37.810Z,24.72
2018-08-21T17:15:06.685Z,24.61
2018-08-21T17:17:35.113Z,24.36
2018-08-21T17:20:03.429Z,23.83
2018-08-21T17:22:32.172Z,24.00
2018-08-21T17:25:00.537Z,23.60
2018-08-21T17:27:28.834Z,23.34
2018-08-21T17:29:57.103Z,23.02
2018-08-21T17:32:25.397Z,22.82
2018-08-21T17:34:53.690Z,22.94
2018-08-21T17:37:21.977Z,22.82
2018-08-21T17:39:50.241Z,22.74
2018-08-21T17:42:18.532Z,22.95
2018-08-21T17:44:46.823Z,22.89
2018-08-21T17:47:15.109Z,22.53
2018-08-21T17:49:43.372Z,22.78
2018-08-21T17:52:11.683Z,22.61
2018-08-21T17:54:39.945Z,22.24
2018-08-21T17:57:08.236Z,22.47
2018-08-21T17:59:36.523Z,22.54
2018-08-21T18:02:05.988Z,22.35
2018-08-21T18:04:34.317Z,22.39
2018-08-21T18:07:03.674Z,21.74
2018-08-21T18:09:33.689Z,21.73
2018-08-21T18:12:02.027Z,21.84
2018-08-21T18:14:30.364Z,21.86
2018-08-21T18:16:58.664Z,21.93
2018-08-21T18:19:26.931Z,21.88
2018-08-21T18:21:55.229Z,21.72
2018-08-21T18:24:23.521Z,21.56
2018-08-21T18:26:51.788Z,21.46
2018-08-21T18:29:20.345Z,21.47
2018-08-21T18:31:48.620Z,21.34
2018-08-21T18:34:16.901Z,21.08
2018-08-21T18:36:45.210Z,21.09
2018-08-21T18:39:14.097Z,21.05
2018-08-21T18:41:42.363Z,20.97
2018-08-21T18:44:10.641Z,20.74
2018-08-21T18:46:38.901Z,20.76
2018-08-21T18:49:07.193Z,20.51
2018-08-21T18:51:35.636Z,20.40
2018-08-21T18:54:03.885Z,20.38
2018-08-21T18:56:32.161Z,20.30
2018-08-21T18:59:00.558Z,20.12
2018-08-21T19:01:28.809Z,20.15
2018-08-21T19:03:57.264Z,20.17
2018-08-21T19:06:25.468Z,20.21
2018-08-21T19:08:53.963Z,20.10
2018-08-21T19:11:22.293Z,20.01
2018-08-21T19:13:50.568Z,19.98
2018-08-21T19:16:18.853Z,19.90
2018-08-21T19:18:47.129Z,19.70
2018-08-21T19:21:15.417Z,19.72
2018-08-21T19:23:43.783Z,19.55
2018-08-21T19:26:12.068Z,19.63
2018-08-21T19:28:40.349Z,19.56
2018-08-21T19:31:08.643Z,19.47
2018-08-21T19:33:36.905Z,19.46
2018-08-21T19:36:05.213Z,19.39
2018-08-21T19:38:33.479Z,19.44
2018-08-21T19:41:02.129Z,19.39
2018-08-21T19:43:30.773Z,19.39
2018-08-21T19:45:59.079Z,19.30
2018-08-21T19:48:27.397Z,19.58
2018-08-21T19:50:55.667Z,19.39
2018-08-21T19:53:23.969Z,19.35
2018-08-21T19:55:52.237Z,19.23
2018-08-21T19:58:20.583Z,19.34
2018-08-21T20:00:48.814Z,19.30
2018-08-21T20:03:17.245Z,19.22
2018-08-21T20:05:45.590Z,19.07
2018-08-21T20:08:13.892Z,19.05
2018-08-21T20:10:42.246Z,19.02
2018-08-21T20:13:10.536Z,19.08
2018-08-21T20:15:38.805Z,19.05
2018-08-21T20:18:07.125Z,19.03
2018-08-21T20:20:35.393Z,18.94
2018-08-21T20:23:03.761Z,18.87
2018-08-21T20:25:32.016Z,18.82
2018-08-21T20:28:00.293Z,18.75
2018-08-21T20:30:28.593Z,18.73
2018-08-21T20:32:56.966Z,18.64
2018-08-21T20:35:25.277Z,18.66
2018-08-21T20:37:53.559Z,18.60
2018-08-21T20:40:26.215Z,18.77
2018-08-21T20:42:54.502Z,18.64
2018-08-21T20:45:22.842Z,18.55
2018-08-21T20:47:51.208Z,18.50
2018-08-21T20:50:19.509Z,18.43
2018-08-21T20:52:47.889Z,18.29
2018-08-21T20:55:16.260Z,18.39
2018-08-21T20:57:46.741Z,18.39
2018-08-21T21:00:15.141Z,18.32
2018-08-21T21:02:43.516Z,18.34
2018-08-21T21:05:11.785Z,18.26
2018-08-21T21:07:41.121Z,18.29
2018-08-21T21:10:09.412Z,18.32
2018-08-21T21:12:47.043Z,18.29
2018-08-21T21:15:27.361Z,18.23
2018-08-21T21:18:06.997Z,18.16
2018-08-21T21:20:47.577Z,18.19
2018-08-21T21:23:18.833Z,18.14
2018-08-21T21:25:47.161Z,18.23
2018-08-21T21:28:16.613Z,18.11
2018-08-21T21:30:45.172Z,18.07
2018-08-21T21:33:13.997Z,18.13
2018-08-21T21:35:42.410Z,17.99
2018-08-21T21:38:10.946Z,18.10
2018-08-21T21:40:39.358Z,18.00
2018-08-21T21:43:07.660Z,18.01
2018-08-21T21:45:36.409Z,17.87
2018-08-21T21:48:05.591Z,17.93
2018-08-21T21:50:34.051Z,17.99
2018-08-21T21:53:03.557Z,17.90
2018-08-21T21:55:31.907Z,17.88
2018-08-21T21:58:00.203Z,17.88
2018-08-21T22:00:29.397Z,17.85
2018-08-21T22:02:57.844Z,17.80
2018-08-21T22:05:26.916Z,17.74
2018-08-21T22:07:55.217Z,17.69
2018-08-21T22:10:23.828Z,17.92
2018-08-21T22:12:52.229Z,17.70
2018-08-21T22:15:20.558Z,17.72
2018-08-21T22:17:48.934Z,17.72
2018-08-21T22:20:17.229Z,17.78
2018-08-21T22:22:45.498Z,17.75
2018-08-21T22:25:13.893Z,17.75
2018-08-21T22:27:42.177Z,17.65
2018-08-21T22:30:11.249Z,17.65
2018-08-21T22:32:40.561Z,17.63
2018-08-21T22:35:08.925Z,17.65
2018-08-21T22:37:37.210Z,17.69
2018-08-21T22:40:05.554Z,17.68
2018-08-21T22:42:33.965Z,17.62
2018-08-21T22:45:02.310Z,17.62
2018-08-21T22:47:30.613Z,17.58
2018-08-21T22:49:58.882Z,17.62
2018-08-21T22:52:27.165Z,17.61
2018-08-21T22:54:55.625Z,17.53
2018-08-21T22:57:23.933Z,17.48
2018-08-21T22:59:52.199Z,17.41
2018-08-21T23:02:20.485Z,17.47
2018-08-21T23:04:50.789Z,17.47
2018-08-21T23:07:19.181Z,17.42
2018-08-21T23:09:47.534Z,17.42
2018-08-21T23:12:15.835Z,17.34
2018-08-21T23:14:44.151Z,17.41
2018-08-21T23:17:12.511Z,17.37
2018-08-21T23:19:40.826Z,17.29
2018-08-21T23:22:09.128Z,17.34
2018-08-21T23:24:37.425Z,17.36
2018-08-21T23:27:06.629Z,17.32
2018-08-21T23:29:34.923Z,17.32
2018-08-21T23:32:03.254Z,17.22
2018-08-21T23:34:31.557Z,17.28
2018-08-21T23:36:59.818Z,17.27
2018-08-21T23:39:28.495Z,17.24
2018-08-21T23:41:57.420Z,17.25
2018-08-21T23:44:25.796Z,17.24
2018-08-21T23:46:54.069Z,17.19
2018-08-21T23:49:22.377Z,17.22
2018-08-21T23:51:50.653Z,17.13
2018-08-21T23:54:18.965Z,17.15
2018-08-21T23:56:47.251Z,17.06
2018-08-21T23:59:15.577Z,17.08
